CheckWX is a tool to help pilots better visualize weather data.  It is not intended as a substitute for an official pre-flight weather briefing.

05:38:06 UTC

KMKN METAR
Comanche County-City Airport
Comanche, Texas, USA
Current

23 mins ago

KMKN 180515Z AUTO 16007KT 10SM CLR 30/18 A2987 RMK AO2 T02950179
Observed
Aug-18 @ 05:15 UTC
Wind
  • 160° at 7 KTS
Visibility
10 SM
Flight Rules
VFR
Cloud Levels
  • Clear skies
Temperature
30°C / 86°F
Dewpoint
18°C / 64°F
Heat Index
31°C / 88°F
Humidity
49%
Altimeter
29.87" Hg
Pressure
1011.52 hPa
Previous

43 mins ago

KMKN 180455Z AUTO 17008KT 10SM CLR 30/18 A2986 RMK AO2 T03000177
Observed
Aug-18 @ 04:55 UTC
Wind
  • 170° at 8 KTS
Visibility
10 SM
Flight Rules
VFR
Cloud Levels
  • Clear skies
Temperature
30°C / 86°F
Dewpoint
18°C / 64°F
Heat Index
31°C / 88°F
Humidity
49%
Altimeter
29.86" Hg
Pressure
1011.22 hPa
Previous

1 hour ago

KMKN 180435Z AUTO 17009KT 10SM CLR 30/18 A2986 RMK AO2 T03020176
Observed
Aug-18 @ 04:35 UTC
Wind
  • 170° at 9 KTS
Visibility
10 SM
Flight Rules
VFR
Cloud Levels
  • Clear skies
Temperature
30°C / 86°F
Dewpoint
18°C / 64°F
Heat Index
31°C / 88°F
Humidity
49%
Altimeter
29.86" Hg
Pressure
1011.22 hPa